^^
Your Local Weather - Clay, NY Station Historical Data
Daily Summary for July 12, 2017 Units:  English    Metric   Both
« Previous Day
Next Day »
Daily Weekly Monthly Yearly Custom
  High: Low: Average:
Temperature: 84.4 °F 63.2 °F 73.6 °F
Dew Point: 71.5 °F 61.3 °F 67.2 °F
Humidity: 94% 57% 82%
Wind Speed: 3.0mph 0.0mph 0.5mph
Wind Gust: 7.0mph - -
Wind- - SW
Pressure: 29.94 in 29.86 in -
Precipitation: 0.01 in    
Historical Graphs
 
 
Tabular Data for July 12, 2017
Time Temperature Dew Point Pressure Wind Wind Speed Wind Gust Humidity Rainfall Rate (Hourly) solar
00:00 67.8 °F 64.8 °F 29.86 in Calm     90% 0.00 in 0 W/m2
00:06 67.8 °F 65.1 °F 29.86 in Calm     91% 0.00 in 0 W/m2
00:12 67.8 °F 65.1 °F 29.86 in Calm     91% 0.00 in 0 W/m2
00:18 67.8 °F 65.1 °F 29.86 in Calm     91% 0.00 in 0 W/m2
00:24 67.8 °F 65.1 °F 29.87 in Calm     91% 0.00 in 0 W/m2
00:30 67.8 °F 65.1 °F 29.88 in Calm     91% 0.00 in 0 W/m2
00:36 67.9 °F 65.2 °F 29.88 in Calm     91% 0.00 in 0 W/m2
00:42 67.9 °F 65.2 °F 29.88 in Calm     91% 0.00 in 0 W/m2
00:48 67.9 °F 65.2 °F 29.88 in Calm     91% 0.00 in 0 W/m2
00:54 67.9 °F 65.2 °F 29.88 in Calm     91% 0.00 in 0 W/m2
01:00 67.9 °F 65.2 °F 29.88 in Calm     91% 0.00 in 0 W/m2
01:06 67.8 °F 65.1 °F 29.88 in Calm     91% 0.00 in 0 W/m2
01:12 67.8 °F 65.1 °F 29.88 in Calm     91% 0.00 in 0 W/m2
01:18 67.8 °F 65.1 °F 29.88 in Calm     91% 0.00 in 0 W/m2
01:24 67.6 °F 64.9 °F 29.88 in Calm     91% 0.00 in 0 W/m2
01:30 67.5 °F 65.1 °F 29.88 in Calm     92% 0.00 in 0 W/m2
01:36 67.4 °F 65.0 °F 29.88 in Calm     92% 0.00 in 0 W/m2
01:42 67.2 °F 64.8 °F 29.88 in Calm     92% 0.00 in 0 W/m2
01:48 67.2 °F 64.8 °F 29.88 in Calm     92% 0.00 in 0 W/m2
01:54 67.0 °F 64.6 °F 29.88 in Calm     92% 0.00 in 0 W/m2
02:00 66.9 °F 64.5 °F 29.88 in Calm     92% 0.00 in 0 W/m2
02:06 66.9 °F 64.5 °F 29.89 in Calm   1.0 mph 92% 0.00 in 0 W/m2
02:12 66.9 °F 64.5 °F 29.89 in Calm     92% 0.00 in 0 W/m2
02:18 66.7 °F 64.3 °F 29.89 in Calm     92% 0.00 in 0 W/m2
02:24 66.6 °F 64.2 °F 29.89 in Calm     92% 0.00 in 0 W/m2
02:30 66.5 °F 64.1 °F 29.89 in Calm     92% 0.00 in 0 W/m2
02:36 66.4 °F 64.0 °F 29.88 in Calm     92% 0.00 in 0 W/m2
02:42 66.3 °F 64.2 °F 29.89 in Calm     93% 0.00 in 0 W/m2
02:48 66.1 °F 64.0 °F 29.88 in Calm     93% 0.00 in 0 W/m2
02:54 66.0 °F 63.9 °F 29.88 in Calm     93% 0.00 in 0 W/m2
03:00 65.9 °F 63.5 °F 29.88 in Calm     92% 0.00 in 0 W/m2
03:06 65.8 °F 63.7 °F 29.88 in Calm     93% 0.00 in 0 W/m2
03:12 65.7 °F 63.6 °F 29.88 in Calm   1.0 mph 93% 0.00 in 0 W/m2
03:18 65.6 °F 63.5 °F 29.88 in Calm   1.0 mph 93% 0.00 in 0 W/m2
03:24 65.6 °F 63.5 °F 29.88 in Calm     93% 0.00 in 0 W/m2
03:30 65.5 °F 63.4 °F 29.88 in Calm     93% 0.00 in 0 W/m2
03:36 65.3 °F 63.2 °F 29.88 in Calm     93% 0.00 in 0 W/m2
03:42 65.4 °F 63.3 °F 29.88 in Calm     93% 0.00 in 0 W/m2
03:48 65.3 °F 63.2 °F 29.88 in Calm     93% 0.00 in 0 W/m2
03:54 65.1 °F 63.0 °F 29.88 in Calm     93% 0.00 in 0 W/m2
04:00 65.0 °F 62.9 °F 29.88 in Calm     93% 0.00 in 0 W/m2
04:06 64.9 °F 62.8 °F 29.88 in Calm     93% 0.00 in 0 W/m2
04:12 64.9 °F 62.8 °F 29.88 in Calm     93% 0.00 in 0 W/m2
04:18 64.8 °F 62.7 °F 29.88 in Calm     93% 0.00 in 0 W/m2
04:24 64.6 °F 62.5 °F 29.88 in Calm     93% 0.00 in 0 W/m2
04:30 64.5 °F 62.4 °F 29.88 in Calm     93% 0.00 in 0 W/m2
04:36 64.2 °F 62.1 °F 29.88 in Calm     93% 0.00 in 0 W/m2
04:42 64.2 °F 62.1 °F 29.89 in Calm     93% 0.00 in 0 W/m2
04:48 64.2 °F 62.1 °F 29.89 in Calm     93% 0.00 in 0 W/m2
04:54 64.2 °F 62.4 °F 29.89 in Calm     94% 0.00 in 0 W/m2
05:00 64.1 °F 62.0 °F 29.89 in Calm     93% 0.00 in 0 W/m2
05:06 64.1 °F 62.0 °F 29.89 in Calm     93% 0.00 in 0 W/m2
05:12 64.0 °F 61.9 °F 29.89 in Calm     93% 0.00 in 0 W/m2
05:18 63.8 °F 62.0 °F 29.89 in Calm     94% 0.00 in 0 W/m2
05:24 63.6 °F 61.8 °F 29.89 in Calm     94% 0.00 in 0 W/m2
05:30 63.5 °F 61.4 °F 29.90 in Calm     93% 0.00 in 0 W/m2
05:36 63.4 °F 61.3 °F 29.89 in Calm     93% 0.00 in 0 W/m2
05:42 63.3 °F 61.5 °F 29.89 in Calm     94% 0.00 in 0 W/m2
05:48 63.2 °F 61.4 °F 29.89 in Calm     94% 0.00 in 5 W/m2
05:54 63.2 °F 61.4 °F 29.89 in Calm     94% 0.00 in 9 W/m2
06:00 63.3 °F 61.5 °F 29.89 in Calm     94% 0.00 in 12 W/m2
06:06 63.2 °F 61.4 °F 29.90 in Calm     94% 0.00 in 16 W/m2
06:12 63.2 °F 61.4 °F 29.91 in Calm     94% 0.00 in 21 W/m2
06:18 63.4 °F 61.6 °F 29.91 in Calm     94% 0.00 in 26 W/m2
06:24 63.5 °F 61.7 °F 29.91 in Calm     94% 0.00 in 32 W/m2
06:30 63.9 °F 62.1 °F 29.91 in Calm     94% 0.00 in 65 W/m2
06:36 64.2 °F 62.4 °F 29.91 in Calm     94% 0.00 in 72 W/m2
06:42 64.5 °F 62.7 °F 29.91 in Calm     94% 0.00 in 111 W/m2
06:48 65.1 °F 63.3 °F 29.91 in Calm     94% 0.00 in 134 W/m2
06:54 65.8 °F 64.0 °F 29.91 in Calm     94% 0.00 in 144 W/m2
07:00 66.3 °F 64.5 °F 29.92 in Calm     94% 0.00 in 160 W/m2
07:06 66.9 °F 65.1 °F 29.92 in Calm     94% 0.00 in 174 W/m2
07:12 67.5 °F 65.7 °F 29.92 in Calm     94% 0.00 in 186 W/m2
07:18 68.3 °F 66.5 °F 29.93 in Calm     94% 0.00 in 197 W/m2
07:24 68.7 °F 66.9 °F 29.92 in Calm   1.0 mph 94% 0.00 in 209 W/m2
07:30 69.0 °F 66.9 °F 29.92 in Calm     93% 0.00 in 225 W/m2
07:36 69.7 °F 67.6 °F 29.92 in Calm     93% 0.00 in 246 W/m2
07:42 70.7 °F 68.3 °F 29.93 in Calm     92% 0.00 in 265 W/m2
07:48 71.4 °F 68.3 °F 29.92 in Calm     90% 0.00 in 285 W/m2
07:54 71.8 °F 68.1 °F 29.93 in Calm   2.0 mph 88% 0.00 in 304 W/m2
08:00 72.2 °F 68.1 °F 29.92 in Calm     87% 0.00 in 311 W/m2
08:06 72.8 °F 68.7 °F 29.92 in Calm     87% 0.00 in 311 W/m2
08:12 73.3 °F 68.9 °F 29.92 in Calm     86% 0.00 in 346 W/m2
08:18 74.1 °F 69.0 °F 29.92 in Calm     84% 0.00 in 334 W/m2
08:24 74.4 °F 69.2 °F 29.92 in Calm     84% 0.00 in 350 W/m2
08:30 74.9 °F 70.1 °F 29.92 in Calm     85% 0.00 in 387 W/m2
08:36 75.3 °F 69.8 °F 29.92 in Calm     83% 0.00 in 418 W/m2
08:42 75.5 °F 69.6 °F 29.92 in Calm     82% 0.00 in 139 W/m2
08:48 75.7 °F 69.5 °F 29.92 in Calm     81% 0.00 in 541 W/m2
08:54 76.1 °F 69.8 °F 29.92 in Calm     81% 0.00 in 227 W/m2
09:00 76.5 °F 69.9 °F 29.92 in Calm     80% 0.00 in 457 W/m2
09:02 76.6 °F 69.6 °F 29.92 in Calm     79% 0.00 in 227 W/m2
09:08 76.3 °F 69.3 °F 29.92 in Calm     79% 0.00 in 526 W/m2
09:14 76.6 °F 70.3 °F 29.91 in Calm     81% 0.00 in 513 W/m2
09:20 76.7 °F 69.7 °F 29.92 in Calm     79% 0.00 in 522 W/m2
09:26 77.1 °F 70.5 °F 29.92 in Calm     80% 0.00 in 638 W/m2
09:32 77.5 °F 70.1 °F 29.92 in Calm     78% 0.00 in 561 W/m2
09:38 78.2 °F 70.4 °F 29.92 in Calm     77% 0.00 in 744 W/m2
09:44 78.6 °F 70.4 °F 29.92 in WNW 1.0 mph 2.0 mph 76% 0.00 in 290 W/m2
09:50 78.9 °F 70.3 °F 29.91 in WNW 1.0 mph 1.0 mph 75% 0.00 in 450 W/m2
09:56 79.4 °F 70.8 °F 29.91 in Calm   1.0 mph 75% 0.00 in 610 W/m2
10:02 79.7 °F 71.5 °F 29.92 in Calm     76% 0.00 in 489 W/m2
10:08 79.9 °F 70.1 °F 29.92 in Calm   1.0 mph 72% 0.00 in 373 W/m2
10:14 79.6 °F 69.4 °F 29.93 in WNW 1.0 mph 1.0 mph 71% 0.00 in 394 W/m2
10:20 79.2 °F 69.4 °F 29.93 in WNW 1.0 mph 2.0 mph 72% 0.00 in 348 W/m2
10:26 79.1 °F 70.5 °F 29.93 in WNW 1.0 mph 2.0 mph 75% 0.00 in 740 W/m2
10:32 79.6 °F 70.2 °F 29.93 in Calm   4.0 mph 73% 0.00 in 705 W/m2
10:38 79.4 °F 70.8 °F 29.94 in WSW 1.0 mph 4.0 mph 75% 0.00 in 295 W/m2
10:44 79.3 °F 69.9 °F 29.94 in WSW 1.0 mph 2.0 mph 73% 0.00 in 322 W/m2
10:50 78.9 °F 69.1 °F 29.92 in Calm     72% 0.00 in 422 W/m2
10:56 79.7 °F 71.5 °F 29.92 in Calm     76% 0.00 in 640 W/m2
11:02 80.2 °F 68.7 °F 29.92 in SSE 1.0 mph 3.0 mph 68% 0.00 in 689 W/m2
11:08 79.8 °F 68.3 °F 29.92 in South 1.0 mph 3.0 mph 68% 0.00 in 371 W/m2
11:14 80.2 °F 70.4 °F 29.92 in South 1.0 mph 2.0 mph 72% 0.00 in 698 W/m2
11:20 81.0 °F 69.9 °F 29.92 in NNE 1.0 mph 2.0 mph 69% 0.00 in 647 W/m2
11:26 81.3 °F 68.0 °F 29.92 in North 1.0 mph 2.0 mph 64% 0.00 in 380 W/m2
11:32 80.9 °F 69.3 °F 29.92 in Calm   1.0 mph 68% 0.00 in 432 W/m2
11:38 80.6 °F 69.1 °F 29.91 in SW 1.0 mph 4.0 mph 68% 0.00 in 462 W/m2
11:44 80.6 °F 69.5 °F 29.91 in WSW 1.0 mph 4.0 mph 69% 0.00 in 385 W/m2
11:50 80.7 °F 69.2 °F 29.91 in WSW 1.0 mph 3.0 mph 68% 0.00 in 548 W/m2
11:56 81.7 °F 69.2 °F 29.91 in SW 1.0 mph 4.0 mph 66% 0.00 in 1074 W/m2
12:02 81.9 °F 68.1 °F 29.91 in North 1.0 mph 1.0 mph 63% 0.00 in 998 W/m2
12:08 82.1 °F 68.7 °F 29.91 in North 1.0 mph 1.0 mph 64% 0.00 in 501 W/m2
12:14 81.9 °F 66.6 °F 29.91 in SW 1.0 mph 3.0 mph 60% 0.00 in 508 W/m2
12:20 81.5 °F 68.6 °F 29.91 in SW 2.0 mph 2.0 mph 65% 0.00 in 661 W/m2
12:26 81.4 °F 68.9 °F 29.91 in SW 2.0 mph 6.0 mph 66% 0.00 in 601 W/m2
12:32 81.6 °F 68.2 °F 29.91 in WSW 2.0 mph 5.0 mph 64% 0.00 in 487 W/m2
12:38 80.7 °F 68.3 °F 29.91 in WSW 2.0 mph 5.0 mph 66% 0.00 in 323 W/m2
12:44 80.6 °F 68.6 °F 29.91 in NW 1.0 mph 3.0 mph 67% 0.00 in 406 W/m2
12:50 81.5 °F 68.6 °F 29.91 in WSW 1.0 mph 2.0 mph 65% 0.00 in 684 W/m2
12:56 81.6 °F 69.1 °F 29.91 in WSW 2.0 mph 6.0 mph 66% 0.00 in 480 W/m2
13:02 81.4 °F 68.5 °F 29.91 in West 3.0 mph 3.0 mph 65% 0.00 in 424 W/m2
13:08 81.1 °F 67.3 °F 29.91 in WNW 3.0 mph 3.0 mph 63% 0.00 in 383 W/m2
13:14 80.7 °F 69.6 °F 29.91 in SW 3.0 mph 3.0 mph 69% 0.00 in 476 W/m2
13:20 80.8 °F 67.5 °F 29.90 in SW 2.0 mph 4.0 mph 64% 0.00 in 345 W/m2
13:26 80.6 °F 68.2 °F 29.90 in SW 3.0 mph 4.0 mph 66% 0.00 in 339 W/m2
13:32 80.3 °F 68.3 °F 29.90 in SSW 2.0 mph 5.0 mph 67% 0.00 in 385 W/m2
13:38 80.3 °F 69.2 °F 29.90 in SW 2.0 mph 5.0 mph 69% 0.00 in 299 W/m2
13:44 80.2 °F 69.9 °F 29.90 in West 2.0 mph 7.0 mph 71% 0.00 in 345 W/m2
13:50 80.1 °F 68.6 °F 29.90 in SW 2.0 mph 4.0 mph 68% 0.00 in 436 W/m2
13:56 80.2 °F 68.2 °F 29.90 in WSW 3.0 mph 5.0 mph 67% 0.00 in 522 W/m2
14:02 80.9 °F 68.5 °F 29.90 in WSW 3.0 mph 3.0 mph 66% 0.00 in 626 W/m2
14:08 81.7 °F 69.7 °F 29.90 in WSW 2.0 mph 4.0 mph 67% 0.00 in 454 W/m2
14:14 81.8 °F 69.3 °F 29.90 in SW 1.0 mph 3.0 mph 66% 0.00 in 468 W/m2
14:20 81.6 °F 69.1 °F 29.89 in South 2.0 mph 3.0 mph 66% 0.00 in 366 W/m2
14:26 81.7 °F 69.2 °F 29.89 in WSW 1.0 mph 3.0 mph 66% 0.00 in 791 W/m2
14:32 81.8 °F 68.9 °F 29.89 in SW 2.0 mph 4.0 mph 65% 0.00 in 701 W/m2
14:38 82.0 °F 71.2 °F 29.89 in SW 2.0 mph 4.0 mph 70% 0.00 in 571 W/m2
14:44 82.3 °F 69.4 °F 29.89 in South 1.0 mph 2.0 mph 65% 0.00 in 673 W/m2
14:50 82.7 °F 68.4 °F 29.89 in NNW 1.0 mph 1.0 mph 62% 0.00 in 675 W/m2
14:56 82.7 °F 66.9 °F 29.89 in WSW 1.0 mph 3.0 mph 59% 0.00 in 694 W/m2
15:02 83.3 °F 68.0 °F 29.88 in NNW 1.0 mph 2.0 mph 60% 0.00 in 747 W/m2
15:08 83.1 °F 68.7 °F 29.88 in WNW 1.0 mph 6.0 mph 62% 0.00 in 717 W/m2
15:14 83.3 °F 67.5 °F 29.87 in WNW 1.0 mph 1.0 mph 59% 0.00 in 608 W/m2
15:20 82.5 °F 66.2 °F 29.88 in WSW 1.0 mph 1.0 mph 58% 0.00 in 415 W/m2
15:26 82.7 °F 68.8 °F 29.88 in West 1.0 mph 1.0 mph 63% 0.00 in 563 W/m2
15:32 82.6 °F 67.8 °F 29.88 in WSW 1.0 mph 5.0 mph 61% 0.00 in 571 W/m2
15:38 82.4 °F 69.0 °F 29.88 in WSW 2.0 mph 5.0 mph 64% 0.00 in 376 W/m2
15:44 82.3 °F 68.9 °F 29.88 in WSW 1.0 mph 2.0 mph 64% 0.00 in 687 W/m2
15:50 83.2 °F 67.9 °F 29.88 in NW 1.0 mph 1.0 mph 60% 0.00 in 835 W/m2
15:56 84.4 °F 68.0 °F 29.88 in NW 1.0 mph 3.0 mph 58% 0.00 in 779 W/m2
16:02 84.1 °F 68.7 °F 29.89 in WSW 1.0 mph 1.0 mph 60% 0.00 in 793 W/m2
16:08 84.1 °F 67.2 °F 29.89 in WSW 1.0 mph 1.0 mph 57% 0.00 in 594 W/m2
16:14 83.9 °F 68.5 °F 29.89 in WSW 1.0 mph 1.0 mph 60% 0.00 in 687 W/m2
16:20 84.0 °F 67.6 °F 29.89 in SW 1.0 mph 7.0 mph 58% 0.00 in 656 W/m2
16:26 83.9 °F 67.5 °F 29.89 in WSW 2.0 mph 7.0 mph 58% 0.00 in 396 W/m2
16:32 83.4 °F 68.1 °F 29.89 in Calm   1.0 mph 60% 0.00 in 443 W/m2
16:38 83.5 °F 67.2 °F 29.89 in Calm   1.0 mph 58% 0.00 in 216 W/m2
16:44 83.3 °F 68.4 °F 29.89 in NW 1.0 mph 3.0 mph 61% 0.00 in 295 W/m2
16:50 83.2 °F 68.3 °F 29.89 in NW 1.0 mph 4.0 mph 61% 0.00 in 241 W/m2
16:56 83.3 °F 68.0 °F 29.89 in NW 1.0 mph 4.0 mph 60% 0.00 in 306 W/m2
17:02 83.2 °F 69.8 °F 29.89 in WNW 1.0 mph 6.0 mph 64% 0.00 in 216 W/m2
17:08 82.2 °F 71.4 °F 29.89 in NNE 1.0 mph 6.0 mph 70% 0.00 in 214 W/m2
17:14 81.5 °F 70.3 °F 29.89 in North 2.0 mph 6.0 mph 69% 0.00 in 148 W/m2
17:20 80.8 °F 70.1 °F 29.89 in North 3.0 mph 3.0 mph 70% 0.00 in 100 W/m2
17:26 80.0 °F 69.7 °F 29.89 in North 2.0 mph 3.0 mph 71% 0.00 in 77 W/m2
17:32 79.1 °F 69.7 °F 29.89 in NNW 3.0 mph 5.0 mph 73% 0.00 in 56 W/m2
17:38 78.2 °F 70.0 °F 29.89 in North 3.0 mph 5.0 mph 76% 0.00 in 107 W/m2
17:44 77.7 °F 69.9 °F 29.89 in North 2.0 mph 2.0 mph 77% 0.00 in 114 W/m2
17:50 77.5 °F 70.1 °F 29.89 in North 1.0 mph 1.0 mph 78% 0.00 in 95 W/m2
17:56 77.5 °F 70.1 °F 29.89 in Calm   1.0 mph 78% 0.00 in 79 W/m2
18:04 77.5 °F 70.5 °F 29.89 in Calm     79% 0.00 in 58 W/m2
18:10 77.5 °F 70.5 °F 29.89 in Calm     79% 0.00 in 47 W/m2
18:16 77.5 °F 70.5 °F 29.89 in Calm     79% 0.00 in 42 W/m2
18:22 77.4 °F 70.7 °F 29.90 in Calm     80% 0.00 in 32 W/m2
18:28 77.2 °F 70.9 °F 29.91 in Calm     81% 0.00 in 25 W/m2
18:34 76.9 °F 70.3 °F 29.91 in Calm     80% 0.00 in 25 W/m2
18:40 76.7 °F 70.4 °F 29.90 in Calm   1.0 mph 81% 0.00 in 28 W/m2
18:46 76.2 °F 70.7 °F 29.89 in Calm   1.0 mph 83% 0.00 in 30 W/m2
18:52 75.7 °F 70.9 °F 29.89 in Calm     85% 0.00 in 35 W/m2
18:58 75.3 °F 70.8 °F 29.89 in Calm     86% 0.00 in 37 W/m2
19:04 75.0 °F 70.5 °F 29.90 in Calm     86% 0.00 in 33 W/m2
19:10 74.8 °F 70.3 °F 29.90 in Calm     86% 0.00 in 30 W/m2
19:16 74.4 °F 70.6 °F 29.89 in Calm     88% 0.00 in 32 W/m2
19:22 74.2 °F 70.4 °F 29.89 in Calm     88% 0.00 in 40 W/m2
19:28 74.0 °F 70.2 °F 29.89 in Calm     88% 0.00 in 37 W/m2
19:34 74.1 °F 70.6 °F 29.90 in Calm     89% 0.00 in 32 W/m2
19:40 74.3 °F 70.8 °F 29.90 in Calm     89% 0.00 in 28 W/m2
19:46 74.2 °F 70.7 °F 29.90 in Calm     89% 0.00 in 19 W/m2
19:54 74.2 °F 70.4 °F 29.91 in Calm   2.0 mph 88% 0.00 in 14 W/m2
20:00 73.9 °F 69.4 °F 29.91 in SW 2.0 mph 2.0 mph 86% 0.00 in 16 W/m2
20:06 73.6 °F 68.1 °F 29.91 in SSW 2.0 mph 2.0 mph 83% 0.00 in 16 W/m2
20:12 73.3 °F 66.8 °F 29.91 in SSW 1.0 mph 2.0 mph 80% 0.00 in 12 W/m2
20:18 73.0 °F 66.5 °F 29.91 in SSW 1.0 mph 3.0 mph 80% 0.00 in 12 W/m2
20:24 72.6 °F 67.1 °F 29.90 in SSW 1.0 mph 1.0 mph 83% 0.00 in 12 W/m2
20:30 72.1 °F 67.3 °F 29.91 in Calm     85% 0.00 in 7 W/m2
20:36 71.9 °F 67.5 °F 29.91 in Calm     86% 0.00 in 9 W/m2
20:42 71.5 °F 67.1 °F 29.90 in Calm     86% 0.00 in 7 W/m2
20:48 71.4 °F 67.0 °F 29.91 in Calm   1.0 mph 86% 0.00 in 0 W/m2
20:54 71.3 °F 66.6 °F 29.91 in Calm     85% 0.00 in 0 W/m2
21:00 71.4 °F 66.7 °F 29.91 in Calm     85% 0.00 in 0 W/m2
21:06 71.5 °F 66.4 °F 29.91 in Calm   2.0 mph 84% 0.00 in 0 W/m2
21:12 71.5 °F 67.1 °F 29.91 in SSW 1.0 mph 1.0 mph 86% 0.00 in 0 W/m2
21:18 71.2 °F 66.8 °F 29.91 in Calm   1.0 mph 86% 0.00 in 0 W/m2
21:24 71.0 °F 66.9 °F 29.91 in Calm     87% 0.00 in 0 W/m2
21:30 70.9 °F 66.8 °F 29.91 in Calm     87% 0.00 in 0 W/m2
21:36 70.7 °F 67.0 °F 29.91 in Calm     88% 0.00 in 0 W/m2
21:42 70.5 °F 66.8 °F 29.91 in Calm     88% 0.00 in 0 W/m2
21:48 70.5 °F 67.1 °F 29.91 in Calm     89% 0.00 in 0 W/m2
21:54 70.4 °F 67.0 °F 29.91 in Calm     89% 0.00 in 0 W/m2
22:00 70.4 °F 67.0 °F 29.91 in Calm     89% 0.00 in 0 W/m2
22:06 70.1 °F 66.7 °F 29.91 in Calm     89% 0.00 in 0 W/m2
22:12 70.0 °F 66.9 °F 29.91 in Calm     90% 0.00 in 0 W/m2
22:18 70.0 °F 66.9 °F 29.91 in Calm     90% 0.00 in 0 W/m2
22:24 70.0 °F 67.3 °F 29.90 in Calm     91% 0.00 in 0 W/m2
22:30 69.9 °F 67.2 °F 29.90 in Calm     91% 0.00 in 0 W/m2
22:36 69.9 °F 67.2 °F 29.90 in Calm     91% 0.00 in 0 W/m2
22:42 69.9 °F 67.2 °F 29.90 in Calm     91% 0.00 in 0 W/m2
22:48 69.9 °F 67.2 °F 29.89 in Calm     91% 0.00 in 0 W/m2
22:54 69.8 °F 67.1 °F 29.89 in Calm     91% 0.00 in 0 W/m2
23:00 69.9 °F 67.2 °F 29.89 in Calm     91% 0.00 in 0 W/m2
23:06 70.0 °F 67.3 °F 29.89 in Calm     91% 0.00 in 0 W/m2
23:12 70.1 °F 67.3 °F 29.89 in Calm     91% 0.00 in 0 W/m2
23:18 70.1 °F 67.3 °F 29.89 in Calm     91% 0.00 in 0 W/m2
23:24 70.2 °F 67.8 °F 29.89 in Calm     92% 0.00 in 0 W/m2
23:30 70.3 °F 67.9 °F 29.89 in Calm     92% 0.00 in 0 W/m2
23:36 70.4 °F 68.0 °F 29.89 in Calm     92% 0.00 in 0 W/m2
23:42 70.4 °F 68.0 °F 29.89 in Calm     92% 0.00 in 0 W/m2
23:48 70.5 °F 68.1 °F 29.89 in Calm     92% 0.00 in 0 W/m2
23:54 70.4 °F 68.0 °F 29.88 in Calm     92% 0.00 in 0 W/m2
Country Meadow, Clay, NY, USA
Compliments of Weather Underground - 2 mb